Camden, IN (46917)

2:00 PM EDT on August 31, 2015 (GMT -0400)
Carroll Jr/Sr High School | | Change Station
CLOSE
Current Station
Personal Weather Station
Location: Flora, IN
Elevation: 715 ft
Nearby Weather Stations

Elev 715 ft 40.55 °N, 86.48 °W | Updated 16 seconds ago

Partly Cloudy
Partly Cloudy
87.1 °F
Feels Like 84 °F
N
6.9
Wind Variable Wind from South
Gusts 6.9 mph

Today
High -- | Low -- °F
--% Chance of Precip.
Yesterday
High -- | Low -- °F
Precip. -- in
7:11 AM 8:20 PM
Waning Gibbous, 94% visible
Pressure 30.10 in
Visibility 10.0 miles
Clouds Scattered Clouds 3200 ft
Heat Index 84 °F
Dew Point 16 °F
Humidity 7%
Rainfall in
Snow Depth Not available.
UV 7 out of 12
Pollen 10.80 out of 12
Air Quality Not available.
Flu Activity Not available.
METAR KGGP 311755Z AUTO 23005KT 10SM SCT032 28/17 A3010 RMK AO2
Pressure 30.10 in
Visibility 10.0 miles
Clouds Scattered Clouds 3200 ft
Heat Index 84 °F
Dew Point 16 °F
Humidity 7%
Rainfall in
Snow Depth Not available.
UV 7 out of 12
Pollen 10.80 out of 12
Air Quality Not available.
Flu Activity Not available.
METAR KGGP 311755Z AUTO 23005KT 10SM SCT032 28/17 A3010 RMK AO2

10-Day Weather Forecast

×

Almanac

Astronomy

Aug. 31, 2015 Rise Set
Actual Time
Civil Twilight
Nautical Twilight
Astronomical Twilight
Moon
Length of Visible Light
Length of Day
Tomorrow will be .
, % of the Moon is Illuminated

Today's Extremes

State Highs State Lows

Community

WunderPhotos

Upload Photos

1,851,324 photos uploaded!

WunderBlogs® & News

Nearby

Air Quality

  Air Quality AQ Index Pollutant
Not available.

Snow Depth

Station Depth Elevation

Earthquake Activity

City Distance Mag. Time & Date
Minimum magnitude displayed is 2.5.

Coastal Water Temperatures

Place Temperature

Stations

Nearby Weather Stations

Station Location Temp. Windchill Dew Point Humidity Wind Precip. Elev Updated Type